createdAt,value
2018-06-19T00:01:03.231Z,48.89
2018-06-19T00:03:29.876Z,48.95
2018-06-19T00:05:56.521Z,48.85
2018-06-19T00:08:23.158Z,48.90
2018-06-19T00:10:49.791Z,49.03
2018-06-19T00:13:16.486Z,48.98
2018-06-19T00:15:43.115Z,49.06
2018-06-19T00:18:09.753Z,48.96
2018-06-19T00:20:36.390Z,48.99
2018-06-19T00:23:03.053Z,48.86
2018-06-19T00:25:29.697Z,49.04
2018-06-19T00:27:56.373Z,49.01
2018-06-19T00:30:23.050Z,48.98
2018-06-19T00:32:49.690Z,49.16
2018-06-19T00:35:16.347Z,49.07
2018-06-19T00:37:42.950Z,49.09
2018-06-19T00:40:09.644Z,49.09
2018-06-19T00:42:36.279Z,49.06
2018-06-19T00:45:02.927Z,49.15
2018-06-19T00:47:29.573Z,49.16
2018-06-19T00:49:56.261Z,49.08
2018-06-19T00:52:22.904Z,49.06
2018-06-19T00:54:49.545Z,49.08
2018-06-19T00:57:16.259Z,49.18
2018-06-19T00:59:42.923Z,49.05
2018-06-19T01:02:09.600Z,49.18
2018-06-19T01:04:36.234Z,49.13
2018-06-19T01:07:02.874Z,49.12
2018-06-19T01:09:29.544Z,49.12
2018-06-19T01:11:56.194Z,49.11
2018-06-19T01:14:22.829Z,49.10
2018-06-19T01:16:49.500Z,49.15
2018-06-19T01:19:16.191Z,49.21
2018-06-19T01:21:42.831Z,49.08
2018-06-19T01:24:09.471Z,49.22
2018-06-19T01:26:36.115Z,49.23
2018-06-19T01:29:02.805Z,49.10
2018-06-19T01:31:30.759Z,49.20
2018-06-19T01:33:56.077Z,49.23
2018-06-19T01:36:22.763Z,49.22
2018-06-19T01:38:49.397Z,49.25
2018-06-19T01:41:16.041Z,49.30
2018-06-19T01:43:42.687Z,49.21
2018-06-19T01:46:09.364Z,49.27
2018-06-19T01:48:36.014Z,49.16
2018-06-19T01:51:02.691Z,49.24
2018-06-19T01:53:29.322Z,49.29
2018-06-19T01:55:56.018Z,49.35
2018-06-19T01:58:22.652Z,49.36
2018-06-19T02:00:49.289Z,49.32
2018-06-19T02:03:15.939Z,49.40
2018-06-19T02:05:42.617Z,49.35
2018-06-19T02:08:09.251Z,49.33
2018-06-19T02:10:35.897Z,49.33
2018-06-19T02:13:02.614Z,49.33
2018-06-19T02:15:29.267Z,49.38
2018-06-19T02:17:55.906Z,49.38
2018-06-19T02:20:22.594Z,49.40
2018-06-19T02:22:49.235Z,49.35
2018-06-19T02:25:15.934Z,49.44
2018-06-19T02:27:42.571Z,49.38
2018-06-19T02:30:09.197Z,49.53
2018-06-19T02:32:35.881Z,49.45
2018-06-19T02:35:02.595Z,49.44
2018-06-19T02:37:29.266Z,49.51
2018-06-19T02:39:55.893Z,49.53
2018-06-19T02:42:22.610Z,49.47
2018-06-19T02:44:49.288Z,49.49
2018-06-19T02:47:15.980Z,49.44
2018-06-19T02:49:42.605Z,49.45
2018-06-19T02:52:09.332Z,49.59
2018-06-19T02:54:37.095Z,49.55
2018-06-19T02:57:03.776Z,49.60
2018-06-19T02:59:30.419Z,49.60
2018-06-19T03:01:57.109Z,49.57
2018-06-19T03:04:23.746Z,49.62
2018-06-19T03:06:50.389Z,49.73
2018-06-19T03:09:17.033Z,49.63
2018-06-19T03:11:43.675Z,49.56
2018-06-19T03:14:10.345Z,49.58
2018-06-19T03:16:36.982Z,49.51
2018-06-19T03:19:03.657Z,49.81
2018-06-19T03:21:30.262Z,50.27
2018-06-19T03:23:56.909Z,50.39
2018-06-19T03:26:23.549Z,50.39
2018-06-19T03:28:50.189Z,50.57
2018-06-19T03:31:16.831Z,50.72
2018-06-19T03:33:43.469Z,50.97
2018-06-19T03:36:10.183Z,51.38
2018-06-19T03:38:36.785Z,51.12
2018-06-19T03:41:03.477Z,51.19
2018-06-19T03:43:30.108Z,51.28
2018-06-19T03:45:56.748Z,51.16
2018-06-19T03:48:23.396Z,51.22
2018-06-19T03:50:50.041Z,51.31
2018-06-19T03:53:16.733Z,51.14
2018-06-19T03:55:43.377Z,51.34
2018-06-19T03:58:10.014Z,51.18
2018-06-19T04:00:36.696Z,50.80
2018-06-19T04:03:03.385Z,51.19
2018-06-19T04:05:30.030Z,50.91
2018-06-19T04:07:56.661Z,51.24
2018-06-19T04:10:23.376Z,51.74
2018-06-19T04:12:49.949Z,51.23
2018-06-19T04:15:16.590Z,51.14
2018-06-19T04:17:43.228Z,50.94
2018-06-19T04:20:09.915Z,50.88
2018-06-19T04:22:36.552Z,51.18
2018-06-19T04:25:03.189Z,50.99
2018-06-19T04:27:29.875Z,50.96
2018-06-19T04:29:56.548Z,50.92
2018-06-19T04:32:23.178Z,51.00
2018-06-19T04:34:49.822Z,51.05
2018-06-19T04:37:16.509Z,51.09
2018-06-19T04:39:43.152Z,51.09
2018-06-19T04:42:09.798Z,50.99
2018-06-19T04:44:36.441Z,50.91
2018-06-19T04:47:03.123Z,50.78
2018-06-19T04:49:29.780Z,50.82
2018-06-19T04:51:56.462Z,50.94
2018-06-19T04:54:23.097Z,51.08
2018-06-19T04:56:49.803Z,51.04
2018-06-19T04:59:16.414Z,51.04
2018-06-19T05:01:43.059Z,51.02
2018-06-19T05:04:09.747Z,50.75
2018-06-19T05:06:36.387Z,51.06
2018-06-19T05:09:03.073Z,51.02
2018-06-19T05:11:29.761Z,51.05
2018-06-19T05:13:56.413Z,51.11
2018-06-19T05:16:23.094Z,51.03
2018-06-19T05:18:49.773Z,51.25
2018-06-19T05:21:16.414Z,51.21
2018-06-19T05:23:43.093Z,51.14
2018-06-19T05:26:09.730Z,51.20
2018-06-19T05:28:36.409Z,51.43
2018-06-19T05:31:03.117Z,51.58
2018-06-19T05:33:29.828Z,51.38
2018-06-19T05:35:56.547Z,51.45
2018-06-19T05:38:23.196Z,51.24
2018-06-19T05:40:49.944Z,51.45
2018-06-19T05:43:16.628Z,51.45
2018-06-19T05:45:43.272Z,51.26
2018-06-19T05:48:09.916Z,51.27
2018-06-19T05:50:36.553Z,50.96
2018-06-19T05:53:03.193Z,51.32
2018-06-19T05:55:29.986Z,51.20
2018-06-19T05:57:56.603Z,51.21
2018-06-19T06:00:23.241Z,51.09
2018-06-19T06:02:49.932Z,50.93
2018-06-19T06:05:16.688Z,51.66
2018-06-19T06:07:43.324Z,51.65
2018-06-19T06:10:09.971Z,51.44
2018-06-19T06:12:36.714Z,51.44
2018-06-19T06:15:03.316Z,51.48
2018-06-19T06:17:30.001Z,51.03
2018-06-19T06:19:56.645Z,50.89
2018-06-19T06:22:23.362Z,51.35
2018-06-19T06:24:50.034Z,51.31
2018-06-19T06:27:16.714Z,51.12
2018-06-19T06:29:43.355Z,50.48
2018-06-19T06:32:09.969Z,50.94
2018-06-19T06:34:36.647Z,50.60
2018-06-19T06:37:03.358Z,50.57
2018-06-19T06:39:29.915Z,49.75
2018-06-19T06:41:56.689Z,50.23
2018-06-19T06:44:23.407Z,50.16
2018-06-19T06:46:50.059Z,49.72
2018-06-19T06:49:16.706Z,48.56
2018-06-19T06:51:43.356Z,48.73
2018-06-19T06:54:09.992Z,48.94
2018-06-19T06:56:36.637Z,48.79
2018-06-19T06:59:03.294Z,48.45
2018-06-19T07:01:30.010Z,48.38
2018-06-19T07:03:56.734Z,48.13
2018-06-19T07:06:23.342Z,47.82
2018-06-19T07:08:49.981Z,47.33
2018-06-19T07:11:16.737Z,47.20
2018-06-19T07:13:43.473Z,46.55
2018-06-19T07:16:10.338Z,46.94
2018-06-19T07:18:36.947Z,46.68
2018-06-19T07:21:03.636Z,46.41
2018-06-19T07:23:30.315Z,45.34
2018-06-19T07:25:57.091Z,46.01
2018-06-19T07:28:23.642Z,45.64
2018-06-19T07:30:50.399Z,45.63
2018-06-19T07:33:19.053Z,45.64
2018-06-19T07:35:45.692Z,45.17
2018-06-19T07:38:12.604Z,45.18
2018-06-19T07:40:39.030Z,44.90
2018-06-19T07:43:05.770Z,44.77
2018-06-19T07:45:32.467Z,44.63
2018-06-19T07:47:59.143Z,43.87
2018-06-19T07:50:25.784Z,44.58
2018-06-19T07:52:52.550Z,43.65
2018-06-19T07:55:19.196Z,44.17
2018-06-19T07:57:45.901Z,43.24
2018-06-19T08:00:12.572Z,43.82
2018-06-19T08:02:39.280Z,43.00
2018-06-19T08:05:05.935Z,43.46
2018-06-19T08:07:33.723Z,43.23
2018-06-19T08:10:00.479Z,43.16
2018-06-19T08:12:27.085Z,43.03
2018-06-19T08:14:53.733Z,43.16
2018-06-19T08:17:20.411Z,42.77
2018-06-19T08:19:47.039Z,42.87
2018-06-19T08:22:13.769Z,41.86
2018-06-19T08:24:40.404Z,42.36
2018-06-19T08:27:07.040Z,42.33
2018-06-19T08:29:33.726Z,42.44
2018-06-19T08:32:00.367Z,43.02
2018-06-19T08:34:27.087Z,42.83
2018-06-19T08:36:53.777Z,41.61
2018-06-19T08:39:20.457Z,42.11
2018-06-19T08:44:13.730Z,41.74
2018-06-19T08:46:40.374Z,42.28
2018-06-19T08:49:07.065Z,41.71
2018-06-19T08:51:33.748Z,43.41
2018-06-19T08:54:00.438Z,44.31
2018-06-19T08:56:27.090Z,44.30
2018-06-19T08:58:53.727Z,43.53
2018-06-19T09:01:20.455Z,43.16
2018-06-19T09:03:47.083Z,42.36
2018-06-19T09:06:13.770Z,42.53
2018-06-19T09:08:40.577Z,43.30
2018-06-19T09:11:07.195Z,44.78
2018-06-19T09:13:33.936Z,44.99
2018-06-19T09:16:00.598Z,44.66
2018-06-19T09:18:27.234Z,43.99
2018-06-19T09:20:53.944Z,43.48
2018-06-19T09:23:20.629Z,43.26
2018-06-19T09:25:47.295Z,43.05
2018-06-19T09:28:13.977Z,43.35
2018-06-19T09:30:40.621Z,42.75
2018-06-19T09:33:07.310Z,42.49
2018-06-19T09:35:33.955Z,43.04
2018-06-19T09:38:00.654Z,42.61
2018-06-19T09:40:27.315Z,41.90
2018-06-19T09:42:53.982Z,42.60
2018-06-19T09:45:20.641Z,42.18
2018-06-19T09:47:47.288Z,42.68
2018-06-19T09:50:13.944Z,43.50
2018-06-19T09:52:40.588Z,44.42
2018-06-19T09:55:07.268Z,45.14
2018-06-19T09:57:34.023Z,45.34
2018-06-19T10:00:00.719Z,45.37
2018-06-19T10:02:27.364Z,45.10
2018-06-19T10:04:54.001Z,45.11
2018-06-19T10:07:20.658Z,44.44
2018-06-19T10:09:47.314Z,43.61
2018-06-19T10:12:14.181Z,43.44
2018-06-19T10:14:40.755Z,43.96
2018-06-19T10:17:07.416Z,43.10
2018-06-19T10:19:34.143Z,43.97
2018-06-19T10:22:01.147Z,44.02
2018-06-19T10:24:27.787Z,43.10
2018-06-19T10:26:54.421Z,42.78
2018-06-19T10:29:21.125Z,43.45
2018-06-19T10:31:47.773Z,42.86
2018-06-19T10:34:14.452Z,42.47
2018-06-19T10:36:41.096Z,42.71
2018-06-19T10:39:07.825Z,42.90
2018-06-19T10:41:34.490Z,42.17
2018-06-19T10:44:01.179Z,42.47
2018-06-19T10:46:27.823Z,41.88
2018-06-19T10:48:54.503Z,41.84
2018-06-19T10:51:21.136Z,42.11
2018-06-19T10:53:47.827Z,41.32
2018-06-19T10:56:14.505Z,41.47
2018-06-19T10:58:41.124Z,41.36
2018-06-19T11:01:07.772Z,41.74
2018-06-19T11:03:34.419Z,42.11
2018-06-19T11:06:01.065Z,42.30
2018-06-19T11:08:27.828Z,43.69
2018-06-19T11:10:54.507Z,44.61
2018-06-19T11:13:21.139Z,45.37
2018-06-19T11:15:47.834Z,45.32
2018-06-19T11:18:14.505Z,45.25
2018-06-19T11:20:41.317Z,45.26
2018-06-19T11:23:08.021Z,45.43
2018-06-19T11:25:34.725Z,44.98
2018-06-19T11:28:01.311Z,44.92
2018-06-19T11:30:28.071Z,45.24
2018-06-19T11:32:54.720Z,45.46
2018-06-19T11:35:21.438Z,45.36
2018-06-19T11:37:48.130Z,44.99
2018-06-19T11:40:14.943Z,44.56
2018-06-19T11:42:42.540Z,44.58
2018-06-19T11:45:09.166Z,43.68
2018-06-19T11:47:35.862Z,43.20
2018-06-19T11:50:02.627Z,43.59
2018-06-19T11:52:29.232Z,42.92
2018-06-19T11:54:56.784Z,42.02
2018-06-19T11:57:23.607Z,42.46
2018-06-19T11:59:50.294Z,41.41
2018-06-19T12:02:16.963Z,41.76
2018-06-19T12:04:43.733Z,42.02
2018-06-19T12:07:10.346Z,42.97
2018-06-19T12:09:37.089Z,43.96
2018-06-19T12:12:03.771Z,44.01
2018-06-19T12:14:30.614Z,43.96
2018-06-19T12:16:57.411Z,42.65
2018-06-19T12:19:24.115Z,41.98
2018-06-19T12:21:50.767Z,41.43
2018-06-19T12:24:17.415Z,41.23
2018-06-19T12:26:44.139Z,40.94
2018-06-19T12:29:11.157Z,41.21
2018-06-19T12:31:37.826Z,40.33
2018-06-19T12:34:04.475Z,40.54
2018-06-19T12:36:31.233Z,40.83
2018-06-19T12:38:57.759Z,40.36
2018-06-19T12:41:24.402Z,39.78
2018-06-19T12:43:51.045Z,40.80
2018-06-19T12:46:17.701Z,40.48
2018-06-19T12:48:44.391Z,39.79
2018-06-19T12:51:13.580Z,40.11
2018-06-19T12:53:40.237Z,39.80
2018-06-19T12:56:06.872Z,39.40
2018-06-19T12:58:33.596Z,39.63
2018-06-19T13:01:00.242Z,41.06
2018-06-19T13:03:26.889Z,42.13
2018-06-19T13:05:53.552Z,42.46
2018-06-19T13:08:20.193Z,41.44
2018-06-19T13:10:46.850Z,40.84
2018-06-19T13:13:18.014Z,40.64
2018-06-19T13:15:44.761Z,40.51
2018-06-19T13:18:11.411Z,40.30
2018-06-19T13:20:38.075Z,40.45
2018-06-19T13:23:04.713Z,40.63
2018-06-19T13:25:31.504Z,39.89
2018-06-19T13:27:58.186Z,39.52
2018-06-19T13:30:24.866Z,39.60
2018-06-19T13:32:51.556Z,39.61
2018-06-19T13:35:18.199Z,39.17
2018-06-19T13:37:44.844Z,38.64
2018-06-19T13:40:11.571Z,40.03
2018-06-19T13:42:38.234Z,39.30
2018-06-19T13:45:04.909Z,39.35
2018-06-19T13:47:31.575Z,39.64
2018-06-19T13:49:58.246Z,39.63
2018-06-19T13:52:24.919Z,39.61
2018-06-19T13:54:51.539Z,39.18
2018-06-19T13:57:18.460Z,40.40
2018-06-19T13:59:45.545Z,41.34
2018-06-19T14:02:12.134Z,41.50
2018-06-19T14:04:38.778Z,42.00
2018-06-19T14:07:05.464Z,41.77
2018-06-19T14:09:32.080Z,42.15
2018-06-19T14:11:58.743Z,42.22
2018-06-19T14:14:25.392Z,41.30
2018-06-19T14:16:52.041Z,41.06
2018-06-19T14:19:18.766Z,41.03
2018-06-19T14:21:45.404Z,40.92
2018-06-19T14:24:12.051Z,40.56
2018-06-19T14:26:38.736Z,41.31
2018-06-19T14:29:05.338Z,42.26
2018-06-19T14:31:32.013Z,42.66
2018-06-19T14:33:58.648Z,42.45
2018-06-19T14:36:25.333Z,42.84
2018-06-19T14:38:52.062Z,42.29
2018-06-19T14:41:18.698Z,43.10
2018-06-19T14:43:45.369Z,42.49
2018-06-19T14:46:12.047Z,42.68
2018-06-19T14:48:38.764Z,42.44
2018-06-19T14:51:05.394Z,42.06
2018-06-19T14:53:32.025Z,42.76
2018-06-19T14:55:58.669Z,42.91
2018-06-19T14:58:25.305Z,42.00
2018-06-19T15:00:51.973Z,42.55
2018-06-19T15:03:18.592Z,41.94
2018-06-19T15:05:45.374Z,42.98
2018-06-19T15:08:12.020Z,43.68
2018-06-19T15:10:38.727Z,44.03
2018-06-19T15:13:05.343Z,44.14
2018-06-19T15:15:31.980Z,43.59
2018-06-19T15:17:58.621Z,43.63
2018-06-19T15:20:25.310Z,43.47
2018-06-19T15:22:55.288Z,43.30
2018-06-19T15:25:21.964Z,43.14
2018-06-19T15:27:48.681Z,43.00
2018-06-19T15:30:15.337Z,42.65
2018-06-19T15:32:42.028Z,43.10
2018-06-19T15:35:08.680Z,42.84
2018-06-19T15:37:35.362Z,42.76
2018-06-19T15:40:02.003Z,43.66
2018-06-19T15:42:28.638Z,44.03
2018-06-19T15:44:55.277Z,44.50
2018-06-19T15:47:21.932Z,44.50
2018-06-19T15:49:48.613Z,44.47
2018-06-19T15:52:15.253Z,44.34
2018-06-19T15:54:41.964Z,44.23
2018-06-19T15:57:08.562Z,43.92
2018-06-19T15:59:35.215Z,43.75
2018-06-19T16:02:01.905Z,43.69
2018-06-19T16:04:28.539Z,43.62
2018-06-19T16:06:55.174Z,43.55
2018-06-19T16:09:21.838Z,43.54
2018-06-19T16:11:48.478Z,43.25
2018-06-19T16:14:15.191Z,44.26
2018-06-19T16:16:41.837Z,45.16
2018-06-19T16:19:08.513Z,44.98
2018-06-19T16:21:35.200Z,44.52
2018-06-19T16:24:01.840Z,44.01
2018-06-19T16:26:28.474Z,43.83
2018-06-19T16:28:55.123Z,43.67
2018-06-19T16:31:21.801Z,43.56
2018-06-19T16:33:48.452Z,43.89
2018-06-19T16:36:15.167Z,43.70
2018-06-19T16:38:41.766Z,43.45
2018-06-19T16:41:08.541Z,43.27
2018-06-19T16:43:35.189Z,43.33
2018-06-19T16:46:01.917Z,43.10
2018-06-19T16:48:28.561Z,43.25
2018-06-19T16:50:55.196Z,43.37
2018-06-19T16:53:21.840Z,43.12
2018-06-19T16:55:48.525Z,43.05
2018-06-19T16:58:15.162Z,43.08
2018-06-19T17:00:41.855Z,43.09
2018-06-19T17:03:08.507Z,43.04
2018-06-19T17:05:35.145Z,43.04
2018-06-19T17:08:01.789Z,43.02
2018-06-19T17:10:28.421Z,43.33
2018-06-19T17:12:55.065Z,43.47
2018-06-19T17:15:21.699Z,43.40
2018-06-19T17:17:48.384Z,43.27
2018-06-19T17:20:15.044Z,43.06
2018-06-19T17:22:41.693Z,43.09
2018-06-19T17:25:08.377Z,43.23
2018-06-19T17:27:35.091Z,43.60
2018-06-19T17:30:01.734Z,42.45
2018-06-19T17:32:28.392Z,43.45
2018-06-19T17:34:55.038Z,44.20
2018-06-19T17:37:21.712Z,46.02
2018-06-19T17:39:48.396Z,46.29
2018-06-19T17:42:15.080Z,46.17
2018-06-19T17:44:41.717Z,45.48
2018-06-19T17:47:08.364Z,45.08
2018-06-19T17:49:35.018Z,45.22
2018-06-19T17:52:01.694Z,44.98
2018-06-19T17:54:28.325Z,45.21
2018-06-19T17:56:55.012Z,45.28
2018-06-19T17:59:21.648Z,44.97
2018-06-19T18:01:48.330Z,45.15
2018-06-19T18:04:15.020Z,45.27
2018-06-19T18:06:41.699Z,45.38
2018-06-19T18:09:08.420Z,45.38
2018-06-19T18:11:35.117Z,45.60
2018-06-19T18:14:01.795Z,45.65
2018-06-19T18:16:28.426Z,45.53
2018-06-19T18:18:55.086Z,45.65
2018-06-19T18:21:21.791Z,45.72
2018-06-19T18:23:48.409Z,45.77
2018-06-19T18:26:15.089Z,45.66
2018-06-19T18:28:41.726Z,45.84
2018-06-19T18:31:08.354Z,45.94
2018-06-19T18:33:35.067Z,46.08
2018-06-19T18:36:01.676Z,46.06
2018-06-19T18:38:28.318Z,46.15
2018-06-19T18:40:54.969Z,46.13
2018-06-19T18:43:21.606Z,46.24
2018-06-19T18:45:48.277Z,46.38
2018-06-19T18:48:14.880Z,46.32
2018-06-19T18:50:41.558Z,46.48
2018-06-19T18:53:08.238Z,46.55
2018-06-19T18:55:34.865Z,46.50
2018-06-19T18:58:01.561Z,46.45
2018-06-19T19:00:28.192Z,46.55
2018-06-19T19:02:54.833Z,46.57
2018-06-19T19:05:21.498Z,46.55
2018-06-19T19:07:48.140Z,46.50
2018-06-19T19:10:14.826Z,46.61
2018-06-19T19:12:41.465Z,46.64
2018-06-19T19:15:08.242Z,46.69
2018-06-19T19:17:34.891Z,46.71
2018-06-19T19:20:01.538Z,46.75
2018-06-19T19:22:28.175Z,46.86
2018-06-19T19:24:54.821Z,46.89
2018-06-19T19:27:21.505Z,46.83
2018-06-19T19:29:48.136Z,46.86
2018-06-19T19:32:14.774Z,46.87
2018-06-19T19:34:41.419Z,46.97
2018-06-19T19:37:08.209Z,46.96
2018-06-19T19:39:34.813Z,46.99
2018-06-19T19:42:01.454Z,46.97
2018-06-19T19:44:28.137Z,46.94
2018-06-19T19:46:54.771Z,47.00
2018-06-19T19:49:21.414Z,47.01
2018-06-19T19:51:48.101Z,47.04
2018-06-19T19:54:14.742Z,47.06
2018-06-19T19:56:41.382Z,47.11
2018-06-19T19:59:08.052Z,47.11
2018-06-19T20:01:34.654Z,47.07
2018-06-19T20:04:01.336Z,47.04
2018-06-19T20:06:27.972Z,47.06
2018-06-19T20:08:54.618Z,47.07
2018-06-19T20:11:21.243Z,47.06
2018-06-19T20:13:47.885Z,47.03
2018-06-19T20:16:14.565Z,47.07
2018-06-19T20:18:41.197Z,47.06
2018-06-19T20:21:07.835Z,47.04
2018-06-19T20:23:34.516Z,47.03
2018-06-19T20:26:01.128Z,47.06
2018-06-19T20:28:27.770Z,47.03
2018-06-19T20:30:57.303Z,47.07
2018-06-19T20:33:24.014Z,47.05
2018-06-19T20:35:50.650Z,47.07
2018-06-19T20:38:17.287Z,47.06
2018-06-19T20:40:43.934Z,47.09
2018-06-19T20:43:10.575Z,47.07
2018-06-19T20:45:37.249Z,47.03
2018-06-19T20:48:03.853Z,47.03
2018-06-19T20:50:30.531Z,47.04
2018-06-19T20:52:57.129Z,47.04
2018-06-19T20:55:23.770Z,47.02
2018-06-19T20:57:50.445Z,47.01
2018-06-19T21:00:17.080Z,46.97
2018-06-19T21:02:43.722Z,47.04
2018-06-19T21:05:10.370Z,47.01
2018-06-19T21:07:37.042Z,47.04
2018-06-19T21:10:03.658Z,46.99
2018-06-19T21:12:30.299Z,46.98
2018-06-19T21:14:56.938Z,46.98
2018-06-19T21:17:23.612Z,47.00
2018-06-19T21:19:50.279Z,46.94
2018-06-19T21:22:16.952Z,47.02
2018-06-19T21:24:43.587Z,46.94
2018-06-19T21:27:10.214Z,46.98
2018-06-19T21:29:36.862Z,46.94
2018-06-19T21:32:03.501Z,46.94
2018-06-19T21:34:30.181Z,46.95
2018-06-19T21:36:56.821Z,46.96
2018-06-19T21:39:23.463Z,46.95
2018-06-19T21:41:50.109Z,46.92
2018-06-19T21:44:16.743Z,46.91
2018-06-19T21:46:43.386Z,46.94
2018-06-19T21:49:10.067Z,46.91
2018-06-19T21:51:36.711Z,46.88
2018-06-19T21:54:03.339Z,46.90
2018-06-19T21:56:30.042Z,46.91
2018-06-19T21:58:56.623Z,46.90
2018-06-19T22:01:23.266Z,46.89
2018-06-19T22:03:49.905Z,46.87
2018-06-19T22:06:16.553Z,46.84
2018-06-19T22:08:43.230Z,46.89
2018-06-19T22:11:09.865Z,46.82
2018-06-19T22:13:36.603Z,46.87
2018-06-19T22:16:03.207Z,46.82
2018-06-19T22:18:29.853Z,46.80
2018-06-19T22:20:56.542Z,46.76
2018-06-19T22:23:23.226Z,46.76
2018-06-19T22:25:49.857Z,46.67
2018-06-19T22:28:16.536Z,46.63
2018-06-19T22:30:43.173Z,46.69
2018-06-19T22:33:09.889Z,46.60
2018-06-19T22:35:36.539Z,46.61
2018-06-19T22:38:03.180Z,46.58
2018-06-19T22:40:29.860Z,46.58
2018-06-19T22:42:56.587Z,46.63
2018-06-19T22:45:23.174Z,46.59
2018-06-19T22:47:49.849Z,46.58
2018-06-19T22:50:16.539Z,46.55
2018-06-19T22:52:43.241Z,46.59
2018-06-19T22:55:09.857Z,46.60
2018-06-19T22:57:36.504Z,46.64
2018-06-19T23:00:03.156Z,46.58
2018-06-19T23:02:29.792Z,46.56
2018-06-19T23:04:56.469Z,46.56
2018-06-19T23:07:23.106Z,46.56
2018-06-19T23:09:49.807Z,46.53
2018-06-19T23:12:16.444Z,46.58
2018-06-19T23:14:43.125Z,46.56
2018-06-19T23:17:09.808Z,46.53
2018-06-19T23:19:36.448Z,46.53
2018-06-19T23:22:03.093Z,46.58
2018-06-19T23:24:29.736Z,46.60
2018-06-19T23:26:56.405Z,46.58
2018-06-19T23:29:23.011Z,46.57
2018-06-19T23:31:49.695Z,46.52
2018-06-19T23:34:16.329Z,46.53
2018-06-19T23:36:42.977Z,46.56
2018-06-19T23:39:09.630Z,46.54
2018-06-19T23:41:36.317Z,46.50
2018-06-19T23:44:02.962Z,46.51
2018-06-19T23:46:29.600Z,46.49
2018-06-19T23:48:56.246Z,46.53
2018-06-19T23:51:22.925Z,46.52
2018-06-19T23:53:49.580Z,46.50
2018-06-19T23:56:16.253Z,46.47
2018-06-19T23:58:42.890Z,46.44
